Keyes, Oklahoma
Current Conditions -  °F | °C
As of 10:53 AM on Friday 28 Nov 2014 (Local Time) from KGUY Reporting Station
Clear Clear  
Wind Chill: 66°   Ceiling: Unl
Heat Index: 66°   Visibility: 10mi
Dew Point: 23°   Wind: 7mph
Humidity: 20%   Direction: 230°SW
Pressure: 29.95"   Gusts: NA
Location:  36.81°N, 102.26°W
Report Text: KGUY 281653Z AUTO 23006KT 10SM CLR 19/M05 A2995 RMK AO2 SLP121 T01891050
Loading
Personal Weather Stations






























Interactive Weather Map New forecast layout! Learn more

10-Day Weather Forecast

Advertisements
Track Severe Weather on mobile